LFMH 181730Z AUTO 31007KT 280V350 CAVOK 20/16 Q1014

ElémentsDécodage
LFMH Station météo située sur l'aérodrome de SAINT-ETIENNE Bouthéon
181730Z émis le 18 du mois à 17h30 UTC
AUTO Bulletin édité par un automate
31007KT vent du 310°, 07 noeuds
280V350 vent de direction variable entre 280° et 350°
CAVOK Ceiling And Visibility OK
- Visibilité de 10 Km ou plus
- Pas de nuage au-dessous de 1500m ou au-dessous de l'altitude minimale du secteur la plus élevée (si>1500m) et absence de CB
- pas de temps présent significatif
20/16 température 20°C, point de rosée 16°C
 soit une humidité relative de 78%
Q1014 la pression au niveau de la mer (QNH) est de 1014 hPa